Time;durP1;ratioP1;P1;durP2;ratioP2;P2;SDS_P1;SDS_P2;PMS_P1;PMS_P2;Temp;Humidity;BMP_temperature;BMP_pressure;BME280_temperature;BME280_humidity;BME280_pressure;Samples;Min_cycle;Max_cycle;Signal;HPM_P1;HPM_P2
2023/09/20 00:00:51;;;;;;;7.90;2.60;;;;;;;21.54;70.39;100811.91;5030864;28;20060;-75
2023/09/20 00:03:25;;;;;;;8.43;2.33;;;;;;;21.66;69.64;100813.28;5030801;28;20029;-75
2023/09/20 00:05:51;;;;;;;;;;;;;;;21.66;69.75;100814.16;5031321;28;20410;-75
2023/09/20 00:08:16;;;;;;;5.60;2.15;;;;;;;21.28;70.73;100803.94;5030089;28;19913;-75
2023/09/20 00:10:47;;;;;;;10.85;2.45;;;;;;;21.20;71.59;100813.91;5030376;28;20046;-75
2023/09/20 00:13:13;;;;;;;6.72;2.20;;;;;;;21.44;70.22;100811.34;5029571;28;20120;-75
2023/09/20 00:15:42;;;;;;;7.65;2.40;;;;;;;21.06;71.55;100807.22;5030347;28;20153;-75
2023/09/20 00:18:08;;;;;;;6.18;2.13;;;;;;;21.24;70.93;100808.47;5029819;28;20037;-75
2023/09/20 00:20:33;;;;;;;8.30;2.50;;;;;;;21.25;70.79;100798.72;5030344;28;20096;-75
2023/09/20 00:23:00;;;;;;;7.43;2.20;;;;;;;21.29;70.82;100811.84;5030076;28;20040;-76
2023/09/20 00:25:33;;;;;;;6.40;2.30;;;;;;;21.27;71.05;100815.47;5030219;28;20030;-75
2023/09/20 00:27:58;;;;;;;6.38;2.30;;;;;;;21.27;70.78;100815.47;5030486;28;20045;-75
2023/09/20 00:30:27;;;;;;;6.22;2.17;;;;;;;21.15;71.23;100814.06;5029619;28;20420;-75
2023/09/20 00:32:52;;;;;;;6.40;2.17;;;;;;;21.32;70.86;100811.75;5030101;28;20125;-75
2023/09/20 00:35:28;;;;;;;6.90;2.30;;;;;;;21.04;71.97;100817.00;5029973;28;20120;-75
2023/09/20 00:37:57;;;;;;;9.20;2.30;;;;;;;20.95;72.59;100813.78;5030243;28;20037;-75
2023/09/20 00:40:25;;;;;;;6.15;2.40;;;;;;;21.13;72.19;100810.56;5027404;28;20026;-75
2023/09/20 00:42:57;;;;;;;7.13;2.10;;;;;;;21.03;72.60;100801.16;5030202;28;20040;-74
2023/09/20 00:45:23;;;;;;;8.35;2.60;;;;;;;21.05;72.60;100816.09;5029561;28;20031;-74
2023/09/20 00:47:55;;;;;;;6.45;2.20;;;;;;;21.13;71.94;100812.34;5029971;28;20033;-74
2023/09/20 00:50:20;;;;;;;7.18;2.10;;;;;;;21.39;70.54;100810.66;5029327;28;20041;-75
2023/09/20 00:52:54;;;;;;;8.60;2.20;;;;;;;21.15;71.73;100810.50;5028270;28;20064;-75
2023/09/20 00:55:28;;;;;;;;;;;;;;;21.18;71.84;100802.47;5030281;28;20029;-74
2023/09/20 00:58:20;;;;;;;5.63;2.30;;;;;;;21.24;71.42;100803.16;5029660;28;19916;-77
2023/09/20 01:00:46;;;;;;;7.65;2.45;;;;;;;21.18;71.80;100798.06;5026381;28;20071;-77
2023/09/20 01:03:16;;;;;;;8.75;2.10;;;;;;;21.09;71.92;100800.97;5029184;28;20036;-75
2023/09/20 01:05:42;;;;;;;6.60;2.25;;;;;;;21.20;71.56;100795.38;5029916;28;20033;-75
2023/09/20 01:08:17;;;;;;;7.82;2.45;;;;;;;21.11;72.42;100799.13;5029299;28;20048;-75
2023/09/20 01:10:47;;;;;;;7.55;2.50;;;;;;;21.32;71.45;100801.16;5029706;28;20064;-75
2023/09/20 01:13:15;;;;;;;9.27;2.58;;;;;;;21.05;72.38;100794.88;5029456;28;20128;-74
2023/09/20 01:15:46;;;;;;;8.82;2.30;;;;;;;21.31;71.53;100787.94;5029719;28;20514;-75
2023/09/20 01:18:14;;;;;;;6.75;2.42;;;;;;;21.33;71.17;100784.31;5028871;28;20072;-74
2023/09/20 01:20:40;;;;;;;8.65;2.45;;;;;;;21.17;71.65;100785.72;5029209;28;20380;-76
2023/09/20 01:23:09;;;;;;;8.10;2.75;;;;;;;21.42;70.61;100783.13;5028804;28;20487;-74
2023/09/20 01:25:36;;;;;;;9.60;2.60;;;;;;;21.43;70.29;100788.41;5029548;28;20514;-77
2023/09/20 01:28:04;;;;;;;6.60;2.45;;;;;;;21.61;69.98;100789.56;5028780;28;20124;-74
2023/09/20 01:30:36;;;;;;;8.15;2.53;;;;;;;21.54;69.66;100788.03;5029484;28;20042;-74
2023/09/20 01:33:09;;;;;;;9.57;2.60;;;;;;;21.58;68.68;100780.88;5029542;28;20073;-75
2023/09/20 01:35:36;;;;;;;6.90;2.63;;;;;;;21.66;68.23;100784.97;5029296;28;20030;-75
2023/09/20 01:38:04;;;;;;;6.47;2.33;;;;;;;21.69;67.77;100784.88;5028929;28;20036;-75
2023/09/20 01:40:36;;;;;;;5.95;2.20;;;;;;;21.39;68.77;100791.22;5029248;28;20041;-75
2023/09/20 01:43:11;;;;;;;7.53;2.40;;;;;;;21.69;67.43;100784.03;5026875;28;20384;-74
2023/09/20 01:45:36;;;;;;;9.00;2.60;;;;;;;21.62;67.30;100785.13;5029467;28;20030;-74
2023/09/20 01:48:06;;;;;;;8.35;2.50;;;;;;;21.71;67.28;100782.19;5028734;28;20068;-74
2023/09/20 01:50:34;;;;;;;9.70;3.08;;;;;;;21.66;67.16;100786.75;5029301;28;20045;-76
2023/09/20 01:53:02;;;;;;;9.02;2.60;;;;;;;21.55;67.27;100781.81;5028789;28;20065;-74
2023/09/20 01:55:31;;;;;;;8.05;2.70;;;;;;;21.73;66.49;100781.19;5029418;28;20025;-76
2023/09/20 01:58:00;;;;;;;9.45;2.60;;;;;;;21.75;66.21;100778.50;5029498;28;20033;-76
2023/09/20 02:00:32;;;;;;;7.60;2.67;;;;;;;21.65;66.28;100777.94;5029211;28;20038;-75
2023/09/20 02:03:06;;;;;;;8.88;3.05;;;;;;;21.76;65.97;100782.91;5030716;28;20399;-74
2023/09/20 02:05:31;;;;;;;8.88;2.50;;;;;;;21.63;66.24;100776.28;5029498;28;20117;-76
2023/09/20 02:07:57;;;;;;;11.50;2.80;;;;;;;21.88;65.51;100777.16;5029056;28;20479;-76
2023/09/20 02:10:23;;;;;;;9.50;2.90;;;;;;;21.86;65.41;100777.22;5028498;28;20484;-76
2023/09/20 02:12:51;;;;;;;7.55;2.80;;;;;;;21.72;65.83;100770.63;5029335;28;20065;-76
2023/09/20 02:15:21;;;;;;;9.95;2.70;;;;;;;21.71;65.53;100768.94;5028769;28;20140;-76
2023/09/20 02:17:46;;;;;;;9.73;3.33;;;;;;;21.58;66.40;100779.09;5027806;28;20099;-76
2023/09/20 02:20:19;;;;;;;10.05;2.85;;;;;;;21.70;66.01;100756.56;5028567;28;20041;-74
2023/09/20 02:22:48;;;;;;;10.43;2.88;;;;;;;21.65;65.79;100745.25;5029191;28;20126;-76
2023/09/20 02:25:14;;;;;;;11.63;3.00;;;;;;;21.58;66.06;100752.56;5028634;28;20049;-77
2023/09/20 02:27:43;;;;;;;8.20;2.90;;;;;;;21.66;65.60;100744.31;5029318;28;20044;-76
2023/09/20 02:30:16;;;;;;;6.63;2.67;;;;;;;21.40;66.39;100750.50;5028377;28;20139;-76
2023/09/20 02:32:50;;;;;;;10.27;2.95;;;;;;;21.56;66.49;100746.41;5028977;28;20088;-76
2023/09/20 02:35:16;;;;;;;13.60;2.83;;;;;;;21.69;65.74;100749.53;5028729;28;20045;-76
2023/09/20 02:37:41;;;;;;;7.03;2.53;;;;;;;21.44;66.47;100746.84;5029083;28;20033;-75
2023/09/20 02:40:18;;;;;;;7.88;2.78;;;;;;;21.54;66.05;100734.13;5029839;28;20495;-76
2023/09/20 02:42:52;;;;;;;8.45;2.72;;;;;;;21.48;66.20;100724.59;5032497;28;20041;-76
2023/09/20 02:45:18;;;;;;;7.60;2.63;;;;;;;21.46;66.66;100750.31;5032013;28;20040;-75
2023/09/20 02:47:46;;;;;;;9.02;2.88;;;;;;;21.50;66.28;100729.84;5032407;28;20045;-73
2023/09/20 02:50:18;;;;;;;8.85;2.67;;;;;;;21.10;67.48;100722.31;5029186;28;20033;-74
2023/09/20 02:52:45;;;;;;;6.43;2.40;;;;;;;21.59;65.80;100717.13;5032347;28;20069;-76
2023/09/20 02:55:20;;;;;;;8.38;2.90;;;;;;;21.47;66.31;100722.84;5032108;28;20042;-74
2023/09/20 02:57:49;;;;;;;8.00;2.75;;;;;;;21.45;66.52;100714.09;5032225;28;20037;-75
2023/09/20 03:00:21;;;;;;;9.63;2.60;;;;;;;21.55;65.92;100710.19;5031417;28;20030;-75
2023/09/20 03:02:54;;;;;;;8.73;2.83;;;;;;;21.66;65.32;100705.38;5032425;28;20044;-76
2023/09/20 03:05:21;;;;;;;7.37;2.57;;;;;;;21.75;65.34;100713.03;5031737;28;20030;-76
2023/09/20 03:07:49;;;;;;;8.48;2.50;;;;;;;21.47;66.15;100706.09;5032111;28;20040;-75
2023/09/20 03:10:16;;;;;;;7.57;2.70;;;;;;;21.53;66.05;100705.88;5031119;28;20534;-76
2023/09/20 03:12:43;;;;;;;9.38;2.90;;;;;;;21.35;66.26;100702.91;5031965;28;20053;-76
2023/09/20 03:15:10;;;;;;;10.13;2.60;;;;;;;21.61;65.49;100704.69;5031415;28;20038;-74
2023/09/20 03:17:37;;;;;;;9.38;2.60;;;;;;;21.54;66.01;100694.31;5031797;28;20128;-76
2023/09/20 03:20:16;;;;;;;9.00;2.45;;;;;;;21.60;65.49;100691.47;5031276;28;20499;-75
2023/09/20 03:22:46;;;;;;;8.02;2.70;;;;;;;21.26;66.50;100689.97;5031638;28;20033;-76
2023/09/20 03:25:14;;;;;;;7.88;2.58;;;;;;;21.52;66.39;100682.91;5031463;28;20037;-76
2023/09/20 03:27:49;;;;;;;9.35;2.65;;;;;;;21.37;66.98;100686.94;5031954;28;20065;-76
2023/09/20 03:30:21;;;;;;;8.43;2.85;;;;;;;21.64;65.69;100690.47;5031347;28;20034;-76
2023/09/20 03:32:50;;;;;;;7.65;2.50;;;;;;;21.45;66.09;100685.78;5031562;28;20045;-76
2023/09/20 03:35:17;;;;;;;8.52;2.70;;;;;;;21.16;67.00;100682.38;5031316;28;20041;-76
2023/09/20 03:37:43;;;;;;;7.85;2.33;;;;;;;21.54;65.80;100687.22;5031537;28;20546;-75
2023/09/20 03:40:17;;;;;;;6.70;2.70;;;;;;;21.50;66.23;100680.31;5030366;28;20125;-75
2023/09/20 03:42:49;;;;;;;6.68;2.40;;;;;;;21.25;66.83;100669.69;5031599;28;20042;-75
2023/09/20 03:45:16;;;;;;;5.22;2.10;;;;;;;21.06;68.10;100676.47;5031130;28;20038;-75
2023/09/20 03:47:42;;;;;;;7.40;2.22;;;;;;;21.27;66.85;100675.81;5031728;28;20462;-75
2023/09/20 03:50:13;;;;;;;8.57;2.40;;;;;;;21.21;67.34;100667.19;5030286;28;20042;-76
2023/09/20 03:52:42;;;;;;;9.93;2.55;;;;;;;21.48;66.44;100670.66;5031315;28;20045;-75
2023/09/20 03:55:10;;;;;;;6.13;2.45;;;;;;;21.61;65.92;100666.66;5030473;28;20073;-73
2023/09/20 03:57:38;;;;;;;6.75;2.28;;;;;;;21.53;66.36;100668.75;5028813;28;20041;-75
2023/09/20 04:00:07;;;;;;;5.80;2.40;;;;;;;21.44;66.69;100664.63;5030624;28;20533;-75
2023/09/20 04:02:34;;;;;;;7.00;2.40;;;;;;;21.37;66.69;100666.59;5031193;28;20442;-73
2023/09/20 04:05:05;;;;;;;5.78;2.20;;;;;;;21.62;66.08;100658.66;5030780;28;20040;-75
2023/09/20 04:07:31;;;;;;;7.75;2.17;;;;;;;21.52;66.20;100654.63;5031048;28;20457;-75
2023/09/20 04:10:02;;;;;;;8.15;2.10;;;;;;;21.53;65.96;100666.09;5030533;28;20133;-75
2023/09/20 04:12:27;;;;;;;7.28;2.28;;;;;;;21.39;66.81;100651.53;5030136;28;20044;-74
2023/09/20 04:14:53;;;;;;;8.15;2.33;;;;;;;21.55;66.12;100640.34;5031332;28;20120;-74
2023/09/20 04:17:18;;;;;;;6.28;2.00;;;;;;;21.41;67.11;100649.66;5029954;28;20076;-74
2023/09/20 04:19:44;;;;;;;7.03;2.28;;;;;;;21.48;66.43;100637.06;5030738;28;20072;-74
2023/09/20 04:22:10;;;;;;;6.90;2.30;;;;;;;21.36;66.60;100645.44;5030338;28;20029;-73
2023/09/20 04:24:36;;;;;;;6.90;2.03;;;;;;;21.60;66.05;100641.91;5030654;28;20060;-74
2023/09/20 04:27:02;;;;;;;7.00;2.10;;;;;;;21.22;67.11;100637.09;5030422;28;20045;-74
2023/09/20 04:29:29;;;;;;;7.50;2.15;;;;;;;21.37;66.53;100632.13;5029763;28;20030;-74
2023/09/20 04:32:00;;;;;;;7.05;2.10;;;;;;;21.56;65.41;100620.88;5030333;28;20574;-73
2023/09/20 04:34:25;;;;;;;6.55;2.22;;;;;;;21.56;65.33;100618.22;5030402;28;20084;-76
2023/09/20 04:36:54;;;;;;;9.35;2.30;;;;;;;21.61;65.12;100621.56;5030567;28;20582;-75
2023/09/20 04:39:25;;;;;;;8.15;2.40;;;;;;;21.59;65.18;100620.78;5030290;28;20046;-74
2023/09/20 04:41:51;;;;;;;5.05;2.08;;;;;;;21.41;65.58;100623.13;5030042;28;20087;-74
2023/09/20 04:44:16;;;;;;;5.93;2.30;;;;;;;21.14;66.61;100626.72;5029687;28;20454;-74
2023/09/20 04:46:47;;;;;;;5.45;2.20;;;;;;;21.23;66.31;100629.06;5030356;28;20039;-73
2023/09/20 04:49:19;;;;;;;6.07;2.20;;;;;;;21.09;66.56;100619.84;5029795;28;20025;-76
2023/09/20 04:51:45;;;;;;;7.35;2.42;;;;;;;21.34;65.86;100618.13;5028138;28;20037;-73
2023/09/20 04:54:11;;;;;;;9.35;2.13;;;;;;;21.02;67.35;100621.84;5029442;28;20399;-74
2023/09/20 04:56:36;;;;;;;6.95;2.13;;;;;;;21.28;66.27;100621.84;5030158;28;20048;-74
2023/09/20 04:59:04;;;;;;;6.60;2.22;;;;;;;20.35;69.21;100631.06;5029498;28;20513;-73
2023/09/20 05:01:29;;;;;;;6.95;2.47;;;;;;;20.93;67.89;100627.44;5029805;28;20052;-73
2023/09/20 05:04:00;;;;;;;7.00;2.30;;;;;;;20.73;68.15;100622.81;5029523;28;20041;-73
2023/09/20 05:06:26;;;;;;;8.05;2.40;;;;;;;20.76;68.09;100627.97;5029407;28;20053;-72
2023/09/20 05:08:51;;;;;;;7.65;2.10;;;;;;;21.11;66.97;100628.59;5030123;28;20037;-73
2023/09/20 05:11:19;;;;;;;9.02;2.75;;;;;;;21.07;67.18;100627.84;5028895;28;20111;-73
2023/09/20 05:13:44;;;;;;;4.90;2.30;;;;;;;21.14;67.16;100621.41;5029789;28;20439;-73
2023/09/20 05:16:10;;;;;;;6.13;2.30;;;;;;;21.53;66.17;100618.34;5029086;28;20034;-73
2023/09/20 05:18:36;;;;;;;7.38;2.38;;;;;;;21.48;66.22;100615.84;5029445;28;20044;-73
2023/09/20 05:21:02;;;;;;;5.30;2.15;;;;;;;21.52;66.03;100621.91;5029221;28;20033;-73
2023/09/20 05:23:27;;;;;;;5.38;2.25;;;;;;;21.47;66.07;100616.75;5029881;28;20087;-76
2023/09/20 05:25:54;;;;;;;5.50;2.20;;;;;;;21.50;66.49;100621.97;5029888;28;20038;-73
2023/09/20 05:28:23;;;;;;;6.13;2.10;;;;;;;21.41;66.63;100624.91;5028867;28;20041;-73
2023/09/20 05:30:51;;;;;;;5.50;2.22;;;;;;;21.51;66.01;100618.41;5029546;28;20118;-73
2023/09/20 05:33:17;;;;;;;4.93;2.08;;;;;;;21.38;66.78;100622.41;5028817;28;20570;-73
2023/09/20 05:35:47;;;;;;;6.60;2.42;;;;;;;21.48;66.43;100617.63;5029536;28;20034;-73
2023/09/20 05:38:12;;;;;;;5.60;2.20;;;;;;;21.33;66.91;100622.56;5028620;28;20103;-73
2023/09/20 05:40:37;;;;;;;8.02;2.55;;;;;;;21.26;66.90;100621.03;5029477;28;20033;-73
2023/09/20 05:43:03;;;;;;;7.22;2.30;;;;;;;21.36;66.56;100619.78;5026704;28;20045;-75
2023/09/20 05:45:30;;;;;;;5.85;2.25;;;;;;;21.20;67.53;100621.25;5029648;28;20068;-76
2023/09/20 05:47:57;;;;;;;5.15;2.20;;;;;;;21.38;66.51;100614.44;5027676;28;20084;-73
2023/09/20 05:50:34;;;;;;;6.03;2.28;;;;;;;21.54;66.42;100617.41;5028880;28;20586;-75
2023/09/20 05:53:01;;;;;;;6.53;2.28;;;;;;;21.59;66.19;100611.00;5028963;28;20127;-76
2023/09/20 05:55:32;;;;;;;9.63;2.40;;;;;;;21.26;67.53;100609.56;5032643;28;20037;-74
2023/09/20 05:58:00;;;;;;;8.18;2.65;;;;;;;21.24;67.66;100619.34;5029405;28;20033;-75
2023/09/20 06:00:38;;;;;;;6.15;2.20;;;;;;;21.11;68.00;100618.00;5029123;28;20120;-75
2023/09/20 06:03:04;;;;;;;8.02;2.33;;;;;;;21.31;67.44;100629.69;5027737;28;20038;-75
2023/09/20 06:05:32;;;;;;;5.85;2.17;;;;;;;21.31;67.29;100619.09;5029435;28;20041;-74
2023/09/20 06:08:00;;;;;;;6.00;2.50;;;;;;;21.37;67.31;100623.31;5029437;28;20068;-74
2023/09/20 06:10:25;;;;;;;7.57;2.40;;;;;;;21.29;67.45;100622.69;5028848;28;20036;-74
2023/09/20 06:12:51;;;;;;;7.93;2.30;;;;;;;21.30;67.73;100622.66;5029298;28;20072;-74
2023/09/20 06:15:28;;;;;;;7.18;2.40;;;;;;;21.27;67.54;100614.81;5031876;28;20442;-74
2023/09/20 06:17:59;;;;;;;7.15;2.03;;;;;;;21.34;66.95;100608.38;5032669;28;20038;-73
2023/09/20 06:20:28;;;;;;;6.35;2.25;;;;;;;21.45;67.09;100613.31;5032055;28;20038;-74
2023/09/20 06:22:54;;;;;;;11.25;2.42;;;;;;;21.51;66.40;100606.91;5032939;28;20097;-73
2023/09/20 06:25:21;;;;;;;6.57;2.20;;;;;;;21.11;68.06;100610.03;5032463;28;20038;-74
2023/09/20 06:27:50;;;;;;;6.15;2.25;;;;;;;21.31;67.45;100602.31;5032690;28;20498;-73
2023/09/20 06:30:24;;;;;;;5.93;2.38;;;;;;;21.23;67.35;100599.91;5031692;28;20037;-73
2023/09/20 06:32:50;;;;;;;4.75;2.20;;;;;;;21.32;67.22;100609.34;5032996;28;20142;-75
2023/09/20 06:35:22;;;;;;;6.60;2.20;;;;;;;21.67;66.21;100608.09;5032444;28;20515;-75
2023/09/20 06:37:47;;;;;;;6.90;2.20;;;;;;;21.36;67.19;100618.91;5032896;28;20516;-73
2023/09/20 06:40:33;;;;;;;6.38;2.40;;;;;;;21.70;66.60;100610.63;5031971;28;20037;-75
2023/09/20 06:43:08;;;;;;;7.13;2.20;;;;;;;21.47;66.95;100608.78;5033073;28;20115;-72
2023/09/20 06:45:49;;;;;;;7.32;2.30;;;;;;;21.50;67.00;100606.03;5032861;28;20044;-75
2023/09/20 06:48:22;;;;;;;6.68;2.42;;;;;;;21.18;67.90;100609.81;5032011;28;20072;-74
2023/09/20 06:50:52;;;;;;;4.40;2.20;;;;;;;21.39;67.36;100616.19;5032263;28;20402;-74
2023/09/20 06:53:23;;;;;;;5.38;2.17;;;;;;;21.44;66.89;100595.66;5031473;28;20030;-73
2023/09/20 06:56:01;;;;;;;6.43;2.33;;;;;;;21.37;67.32;100602.97;5030484;28;20037;-73
2023/09/20 06:58:26;;;;;;;5.28;2.25;;;;;;;21.64;66.55;100602.91;5031651;28;20117;-74
2023/09/20 07:00:59;;;;;;;4.55;2.20;;;;;;;21.35;67.03;100601.28;5030614;28;20120;-74
2023/09/20 07:03:27;;;;;;;4.00;2.20;;;;;;;21.38;66.72;100601.19;5031897;28;20376;-74
2023/09/20 07:06:05;;;;;;;5.47;2.38;;;;;;;21.18;67.32;100612.47;5032314;28;20037;-76
2023/09/20 07:08:34;;;;;;;4.60;2.42;;;;;;;21.63;66.74;100611.78;5031780;28;20083;-75
2023/09/20 07:11:02;;;;;;;5.05;2.35;;;;;;;21.60;66.62;100623.34;5031523;28;20037;-76
2023/09/20 07:13:28;;;;;;;4.05;2.20;;;;;;;21.68;66.05;100620.44;5031837;28;20099;-74
2023/09/20 07:16:04;;;;;;;5.78;2.35;;;;;;;21.30;67.37;100619.13;5031797;28;20041;-73
2023/09/20 07:18:30;;;;;;;6.85;2.63;;;;;;;21.18;67.41;100615.13;5031526;28;20619;-73
2023/09/20 07:20:55;;;;;;;7.43;2.10;;;;;;;21.29;67.37;100612.09;5031818;28;20033;-73
2023/09/20 07:23:21;;;;;;;5.32;2.40;;;;;;;21.54;67.07;100614.75;5031385;28;20029;-73
2023/09/20 07:25:50;;;;;;;6.93;2.72;;;;;;;21.50;67.04;100618.44;5030942;28;20566;-73
2023/09/20 07:28:16;;;;;;;3.97;2.33;;;;;;;21.65;66.48;100625.88;5031176;28;20064;-74
2023/09/20 07:30:45;;;;;;;5.20;2.80;;;;;;;21.62;66.56;100629.47;5031543;28;20034;-74
2023/09/20 07:33:19;;;;;;;6.32;2.30;;;;;;;21.70;65.97;100638.03;5031095;28;20034;-74
2023/09/20 07:35:52;;;;;;;5.45;2.45;;;;;;;21.44;66.98;100649.56;5031676;28;20037;-74
2023/09/20 07:38:26;;;;;;;5.00;2.63;;;;;;;21.36;66.63;100662.22;5031361;28;20033;-73
2023/09/20 07:41:12;;;;;;;4.43;2.53;;;;;;;21.36;66.63;100661.34;5031153;28;20033;-73
2023/09/20 07:43:38;;;;;;;5.53;2.70;;;;;;;21.26;67.48;100646.69;5031483;28;20043;-73
2023/09/20 07:46:07;;;;;;;6.55;2.63;;;;;;;21.22;67.35;100661.84;5030789;28;20398;-74
2023/09/20 07:48:33;;;;;;;5.43;2.60;;;;;;;21.67;65.87;100653.19;5030769;28;20126;-73
2023/09/20 07:50:59;;;;;;;5.15;2.30;;;;;;;21.62;65.73;100656.00;5031136;28;20116;-73
2023/09/20 07:53:25;;;;;;;6.50;2.55;;;;;;;21.60;65.67;100663.16;5030796;28;20037;-73
2023/09/20 07:56:03;;;;;;;4.68;2.30;;;;;;;21.61;65.70;100659.56;5031028;28;20037;-73
2023/09/20 07:58:32;;;;;;;5.95;2.20;;;;;;;21.34;67.04;100661.44;5030550;28;20116;-73
2023/09/20 08:01:12;;;;;;;6.38;2.30;;;;;;;21.43;67.27;100663.75;5031104;28;20033;-73
2023/09/20 08:03:38;;;;;;;7.45;2.30;;;;;;;21.31;67.30;100664.16;5031030;28;20037;-75
2023/09/20 08:06:08;;;;;;;5.45;2.22;;;;;;;21.54;66.21;100650.09;5030428;28;20561;-75
2023/09/20 08:08:35;;;;;;;5.40;2.17;;;;;;;21.53;66.32;100651.00;5030724;28;20037;-73
2023/09/20 08:11:00;;;;;;;4.32;1.95;;;;;;;21.64;65.37;100659.50;5030085;28;20124;-73
2023/09/20 08:13:25;;;;;;;4.25;2.40;;;;;;;21.66;65.52;100662.06;5030663;28;20486;-74
2023/09/20 08:15:51;;;;;;;4.70;2.10;;;;;;;21.31;66.31;100668.59;5030574;28;20134;-74
2023/09/20 08:21:01;;;;;;;4.15;2.13;;;;;;;21.54;65.66;100654.53;5030360;28;20411;-77
2023/09/20 09:02:14;;;;;;;5.20;2.60;;;;;;;21.85;64.80;100639.25;5029105;28;20040;-73
2023/09/20 09:04:44;;;;;;;4.80;2.65;;;;;;;21.75;65.89;100649.34;5029622;28;20045;-73
2023/09/20 09:07:23;;;;;;;5.80;2.67;;;;;;;21.92;65.25;100646.06;5027174;28;20082;-73
2023/09/20 09:09:49;;;;;;;8.13;2.80;;;;;;;22.19;64.54;100641.56;5029736;28;20486;-74
2023/09/20 09:12:15;;;;;;;4.20;2.50;;;;;;;21.53;67.01;100656.31;5029037;28;20029;-73
2023/09/20 09:14:49;;;;;;;7.28;2.60;;;;;;;21.90;65.98;100655.00;5029663;28;20191;-74
2023/09/20 09:17:16;;;;;;;6.80;2.88;;;;;;;22.10;65.59;100653.38;5029046;28;20048;-74
2023/09/20 09:19:44;;;;;;;4.45;2.70;;;;;;;21.99;65.25;100657.38;5029347;28;20403;-74
2023/09/20 09:22:15;;;;;;;4.55;2.53;;;;;;;22.22;64.65;100668.84;5028941;28;20038;-75
2023/09/20 09:24:50;;;;;;;6.30;2.97;;;;;;;21.99;65.52;100658.22;5029641;28;20566;-76
2023/09/20 09:27:15;;;;;;;5.38;2.75;;;;;;;22.36;64.41;100655.06;5028956;28;20041;-76
2023/09/20 09:29:57;;;;;;;6.15;2.72;;;;;;;22.61;63.64;100658.50;5029292;28;20038;-78
2023/09/20 09:32:38;;;;;;;6.18;2.47;;;;;;;22.64;63.08;100647.72;5029446;28;20048;-78
2023/09/20 09:35:07;;;;;;;5.90;2.50;;;;;;;22.67;63.06;100647.63;5027462;28;20057;-78
2023/09/20 09:37:39;;;;;;;5.22;2.70;;;;;;;22.84;62.01;100646.09;5027515;28;20049;-78
2023/09/20 09:40:06;;;;;;;5.78;2.33;;;;;;;23.05;61.11;100642.56;5029024;28;20064;-78
2023/09/20 09:42:36;;;;;;;4.45;2.22;;;;;;;22.72;62.25;100643.91;5031544;28;20044;-77
2023/09/20 09:45:01;;;;;;;7.07;2.30;;;;;;;23.15;60.96;100648.34;5031571;28;20036;-78
2023/09/20 09:47:29;;;;;;;5.35;2.20;;;;;;;22.79;61.73;100625.03;5029860;28;20037;-75
2023/09/20 09:49:55;;;;;;;3.13;2.22;;;;;;;22.63;61.75;100624.72;5032885;28;20631;-74
2023/09/20 09:52:25;;;;;;;5.70;2.28;;;;;;;22.79;61.45;100627.69;5032567;28;20064;-73
2023/09/20 09:54:54;;;;;;;5.10;2.28;;;;;;;22.70;61.95;100629.81;5033183;28;20041;-74
2023/09/20 09:57:20;;;;;;;6.13;2.50;;;;;;;22.67;61.82;100622.84;5032875;28;20534;-76
2023/09/20 09:59:50;;;;;;;5.60;2.50;;;;;;;22.66;61.76;100619.31;5033578;28;20045;-74
2023/09/20 10:02:17;;;;;;;3.88;2.40;;;;;;;22.89;61.33;100610.41;5034436;28;20410;-74
2023/09/20 10:05:00;;;;;;;6.32;2.47;;;;;;;22.81;61.62;100606.38;5035205;28;20391;-74
2023/09/20 10:07:30;;;;;;;5.68;2.40;;;;;;;23.19;60.48;100604.72;5033230;28;20087;-75
2023/09/20 10:10:08;;;;;;;5.38;2.28;;;;;;;22.94;60.73;100587.16;5033213;28;20472;-73
2023/09/20 10:12:35;;;;;;;4.10;2.00;;;;;;;22.52;62.57;100583.59;5032752;28;20057;-76
2023/09/20 10:15:01;;;;;;;4.28;2.35;;;;;;;22.66;62.19;100590.09;5033486;28;20060;-73
2023/09/20 10:17:30;;;;;;;6.78;2.20;;;;;;;22.91;61.14;100584.66;5032399;28;20044;-74
2023/09/20 10:19:56;;;;;;;5.15;2.20;;;;;;;23.01;61.41;100588.63;5032606;28;20676;-73
2023/09/20 10:22:25;;;;;;;6.43;2.20;;;;;;;22.89;61.40;100597.13;5032030;28;20181;-74
2023/09/20 10:24:58;;;;;;;6.07;2.35;;;;;;;22.88;61.17;100590.09;5032621;28;20037;-73
2023/09/20 10:27:27;;;;;;;6.35;2.60;;;;;;;22.35;63.12;100594.03;5032120;28;20049;-73
2023/09/20 10:30:09;;;;;;;8.07;2.40;;;;;;;22.48;62.41;100592.63;5032779;28;20030;-74
2023/09/20 10:33:04;;;;;;;3.75;2.08;;;;;;;22.59;62.92;100591.25;5032540;28;20045;-78
2023/09/20 10:35:30;;;;;;;6.63;2.60;;;;;;;22.86;61.74;100589.31;5032386;28;20045;-74
2023/09/20 10:38:23;;;;;;;5.55;2.30;;;;;;;23.08;61.42;100581.28;5032440;28;20042;-76
2023/09/20 10:40:55;;;;;;;9.52;2.92;;;;;;;22.73;61.94;100585.41;5012160;28;20053;-75
2023/09/20 10:43:36;;;;;;;4.65;2.78;;;;;;;22.62;62.88;100585.84;5031451;28;20045;-75
2023/09/20 10:46:22;;;;;;;7.88;2.83;;;;;;;22.82;62.36;100576.19;5031899;28;20038;-75
2023/09/20 10:48:49;;;;;;;6.65;2.90;;;;;;;23.20;61.03;100575.44;5032525;28;20483;-75
2023/09/20 10:51:44;;;;;;;7.38;2.95;;;;;;;23.66;59.94;100571.66;5031317;28;20030;-74
2023/09/20 10:54:36;;;;;;;6.93;2.92;;;;;;;23.70;59.54;100580.34;5031531;28;20073;-74
2023/09/20 10:57:09;;;;;;;6.97;2.70;;;;;;;23.95;58.67;100569.44;5031778;28;20060;-75
2023/09/20 10:59:37;;;;;;;6.22;2.83;;;;;;;24.13;58.02;100563.25;5031493;28;20447;-74
2023/09/20 11:02:10;;;;;;;7.97;3.10;;;;;;;23.85;59.09;100567.19;5030908;28;20037;-75
2023/09/20 11:04:39;;;;;;;4.93;2.67;;;;;;;23.36;60.06;100579.13;5032370;28;20290;-74
2023/09/20 11:07:05;;;;;;;7.22;2.80;;;;;;;23.85;58.47;100564.50;5031637;28;20056;-74
2023/09/20 11:09:33;;;;;;;7.53;3.15;;;;;;;23.61;59.18;100570.97;5031797;28;20112;-74
2023/09/20 11:12:08;;;;;;;6.18;3.33;;;;;;;23.89;59.14;100573.25;5031632;28;20045;-74
2023/09/20 11:14:42;;;;;;;6.00;2.72;;;;;;;23.90;58.95;100577.63;5031734;28;20034;-75
2023/09/20 11:17:12;;;;;;;6.65;3.03;;;;;;;23.76;59.06;100572.06;5031470;28;20069;-75
2023/09/20 11:19:38;;;;;;;7.13;3.25;;;;;;;23.24;59.78;100574.34;5032088;28;20064;-74
2023/09/20 11:22:05;;;;;;;11.15;3.40;;;;;;;23.74;58.49;100585.44;5030859;28;20080;-75
2023/09/20 11:24:32;;;;;;;6.28;3.25;;;;;;;23.65;58.49;100580.56;5031604;28;20569;-75
2023/09/20 11:26:57;;;;;;;11.13;3.17;;;;;;;23.95;57.33;100577.41;5031346;28;20041;-74
2023/09/20 11:29:26;;;;;;;6.20;3.30;;;;;;;23.83;57.00;100557.56;5030732;28;20095;-75
2023/09/20 11:31:56;;;;;;;6.03;3.30;;;;;;;24.36;55.79;100548.84;5029914;28;20068;-74
2023/09/20 11:34:22;;;;;;;6.95;3.28;;;;;;;23.91;56.88;100552.72;5031107;28;20026;-76
2023/09/20 11:36:55;;;;;;;7.80;3.35;;;;;;;24.38;55.71;100546.97;5031818;28;20033;-73
2023/09/20 11:39:30;;;;;;;5.93;2.75;;;;;;;24.94;54.18;100546.84;5030702;28;20507;-74
2023/09/20 11:42:04;;;;;;;5.72;2.97;;;;;;;24.88;53.80;100549.81;5031178;28;20033;-73
2023/09/20 11:44:35;;;;;;;7.50;3.00;;;;;;;24.75;54.21;100546.88;5030693;28;20140;-73
2023/09/20 11:47:00;;;;;;;11.35;3.28;;;;;;;25.11;53.66;100544.19;5030642;28;20136;-73
2023/09/20 11:49:27;;;;;;;6.80;3.20;;;;;;;24.75;54.43;100548.69;5024011;28;20513;-76
2023/09/20 11:51:57;;;;;;;7.45;3.08;;;;;;;24.84;54.78;100548.22;5042875;28;20033;-73
2023/09/20 11:54:30;;;;;;;6.88;3.30;;;;;;;25.23;52.89;100524.00;5029165;28;20130;-73
2023/09/20 11:56:59;;;;;;;7.43;3.10;;;;;;;25.25;52.50;100538.97;5031040;28;20041;-73
2023/09/20 11:59:27;;;;;;;7.68;3.10;;;;;;;25.45;52.03;100532.56;5030517;28;20096;-72
2023/09/20 12:01:56;;;;;;;6.22;3.20;;;;;;;24.96;52.91;100531.63;5030633;28;20471;-72
2023/09/20 12:04:33;;;;;;;6.82;3.20;;;;;;;25.31;52.42;100529.81;5030171;28;20398;-72
2023/09/20 12:07:02;;;;;;;8.55;3.55;;;;;;;25.35;52.13;100534.03;5030963;28;20073;-73
2023/09/20 12:09:30;;;;;;;7.53;3.25;;;;;;;25.00;52.77;100512.72;5030065;28;20056;-73
2023/09/20 12:11:56;;;;;;;7.80;3.25;;;;;;;25.03;52.53;100523.22;5029745;28;20414;-73
2023/09/20 12:14:26;;;;;;;5.68;3.15;;;;;;;25.01;53.16;100511.75;5029936;28;20033;-73
2023/09/20 12:16:51;;;;;;;9.75;3.00;;;;;;;25.19;52.77;100509.94;5030461;28;20056;-71